Terminal Aerodrome Forecast
Issued by NWS Shreveport, LA

Home | Current Version | Previous Version | Text Only | Print | Product List | Glossary On
Versions: 1 2 3 4 5 6 7 8 9 10 11 12 13 14 15 16 17 18
088
FTUS44 KSHV 300521
TAFMLU
TAF
KMLU 300521Z 3006/0106 18011G15KT P6SM BKN030 OVC040
     FM300700 17014G22KT P6SM SHRA OVC040
      TEMPO 3009/3012 VRB20G40KT 3SM -TSRA BR OVC020CB
     FM301300 20010KT P6SM +TSRA OVC040CB
      TEMPO 3013/3016 -RA SCT030 OVC040
     FM301600 24008KT P6SM SCT040
     FM301800 24013G19KT P6SM SKC=

USA.gov is the U.S. government's official web portal to all federal, state and local government web resources and services.